createdAt,value
2022-12-13T00:00:10.646Z,262.56
2022-12-13T00:01:21.017Z,245.30
2022-12-13T00:02:27.127Z,212.10
2022-12-13T00:03:31.138Z,203.87
2022-12-13T00:04:37.335Z,201.95
2022-12-13T00:05:46.463Z,210.63
2022-12-13T00:06:55.350Z,184.08
2022-12-13T00:07:59.588Z,183.37
2022-12-13T00:09:07.347Z,181.99
2022-12-13T00:10:14.138Z,192.61
2022-12-13T00:11:18.013Z,176.10
2022-12-13T00:12:25.239Z,166.32
2022-12-13T00:13:29.293Z,155.07
2022-12-13T00:14:35.539Z,163.15
2022-12-13T00:15:40.087Z,150.00
2022-12-13T00:16:49.763Z,142.93
2022-12-13T00:17:53.970Z,153.30
2022-12-13T00:19:02.989Z,156.06
2022-12-13T00:20:07.603Z,151.62
2022-12-13T00:21:21.150Z,151.43
2022-12-13T00:22:25.463Z,148.35
2022-12-13T00:23:32.458Z,145.93
2022-12-13T00:24:44.381Z,118.94
2022-12-13T00:25:49.511Z,121.14
2022-12-13T00:26:59.169Z,126.88
2022-12-13T00:28:02.487Z,141.98
2022-12-13T00:29:11.594Z,154.89
2022-12-13T00:30:15.151Z,158.26
2022-12-13T00:32:49.532Z,146.72
2022-12-13T00:33:53.647Z,142.42
2022-12-13T00:35:00.550Z,135.59
2022-12-13T00:36:07.862Z,132.22
2022-12-13T00:37:16.449Z,126.13
2022-12-13T00:38:20.137Z,128.78
2022-12-13T00:39:26.374Z,131.28
2022-12-13T00:40:33.176Z,132.92
2022-12-13T00:41:37.525Z,130.01
2022-12-13T00:42:43.499Z,121.32
2022-12-13T00:43:47.973Z,108.61
2022-12-13T00:44:53.975Z,112.12
2022-12-13T00:45:58.310Z,111.25
2022-12-13T00:47:04.290Z,110.55
2022-12-13T00:48:07.786Z,106.94
2022-12-13T00:49:16.132Z,109.90
2022-12-13T00:50:22.532Z,99.58
2022-12-13T00:51:29.126Z,99.80
2022-12-13T00:52:38.224Z,110.07
2022-12-13T00:53:41.954Z,108.90
2022-12-13T00:54:47.909Z,118.49
2022-12-13T00:55:51.278Z,117.24
2022-12-13T00:56:58.210Z,116.46
2022-12-13T00:58:01.500Z,114.18
2022-12-13T00:59:08.563Z,108.38
2022-12-13T01:00:15.794Z,109.11
2022-12-13T01:01:24.782Z,112.52
2022-12-13T01:02:31.567Z,114.76
2022-12-13T01:03:35.343Z,110.45
2022-12-13T01:04:41.373Z,108.27
2022-12-13T01:06:13.649Z,104.82
2022-12-13T01:07:10.576Z,106.51
2022-12-13T01:08:17.391Z,112.76
2022-12-13T01:09:30.095Z,102.63
2022-12-13T01:10:33.417Z,103.41
2022-12-13T01:11:39.316Z,112.84
2022-12-13T01:12:42.703Z,105.02
2022-12-13T01:13:49.626Z,105.39
2022-12-13T01:14:56.317Z,115.70
2022-12-13T01:16:04.729Z,115.78
2022-12-13T01:17:11.772Z,115.43
2022-12-13T01:18:18.537Z,107.87
2022-12-13T01:19:25.943Z,103.85
2022-12-13T01:20:29.187Z,98.90
2022-12-13T01:21:35.793Z,114.56
2022-12-13T01:22:41.857Z,117.04
2022-12-13T01:23:48.481Z,115.63
2022-12-13T01:24:55.284Z,117.12
2022-12-13T01:25:58.798Z,108.05
2022-12-13T01:27:04.821Z,119.08
2022-12-13T01:28:08.092Z,126.03
2022-12-13T01:29:17.018Z,119.12
2022-12-13T01:30:21.145Z,129.35
2022-12-13T01:31:28.241Z,120.09
2022-12-13T01:32:34.135Z,115.26
2022-12-13T01:33:39.320Z,103.94
2022-12-13T01:34:45.312Z,97.12
2022-12-13T01:35:49.845Z,99.23
2022-12-13T01:36:58.102Z,100.24
2022-12-13T01:38:02.338Z,101.20
2022-12-13T01:39:26.665Z,104.16
2022-12-13T01:40:32.981Z,109.70
2022-12-13T01:41:47.717Z,115.87
2022-12-13T01:42:51.023Z,104.19
2022-12-13T01:44:03.438Z,104.45
2022-12-13T01:45:27.369Z,108.03
2022-12-13T01:46:32.584Z,112.31
2022-12-13T01:47:48.886Z,113.98
2022-12-13T01:49:05.529Z,116.70
2022-12-13T01:50:35.588Z,124.93
2022-12-13T01:51:48.169Z,107.50
2022-12-13T01:53:00.213Z,111.27
2022-12-13T01:54:09.050Z,104.65
2022-12-13T01:55:23.217Z,98.74
2022-12-13T01:56:37.140Z,99.61
2022-12-13T01:57:50.076Z,98.38
2022-12-13T01:58:58.397Z,98.95
2022-12-13T02:00:05.083Z,95.77
2022-12-13T02:01:11.106Z,98.48
2022-12-13T02:02:19.295Z,103.24
2022-12-13T02:03:23.904Z,107.02
2022-12-13T02:04:44.242Z,101.35
2022-12-13T02:06:01.178Z,107.99
2022-12-13T02:07:07.808Z,113.48
2022-12-13T02:08:19.850Z,119.74
2022-12-13T02:09:24.306Z,123.44
2022-12-13T02:10:35.633Z,136.82
2022-12-13T02:11:43.855Z,144.19
2022-12-13T02:12:54.497Z,136.16
2022-12-13T02:13:57.982Z,139.78
2022-12-13T02:15:11.964Z,143.83
2022-12-13T02:16:44.638Z,138.56
2022-12-13T02:18:24.196Z,137.98
2022-12-13T02:20:22.520Z,135.73
2022-12-13T02:21:50.194Z,145.34
2022-12-13T02:23:40.032Z,142.59
2022-12-13T02:25:09.105Z,135.97
2022-12-13T02:27:01.228Z,136.58
2022-12-13T02:28:38.423Z,133.60
2022-12-13T02:30:30.748Z,136.71
2022-12-13T02:31:51.146Z,133.63
2022-12-13T02:33:32.813Z,141.75
2022-12-13T02:34:46.501Z,138.90
2022-12-13T02:36:05.909Z,135.06
2022-12-13T02:37:26.696Z,138.94
2022-12-13T02:38:47.849Z,148.13
2022-12-13T02:40:05.688Z,145.13
2022-12-13T02:41:23.816Z,143.59
2022-12-13T02:42:41.529Z,137.18
2022-12-13T02:44:01.251Z,139.71
2022-12-13T02:45:20.511Z,137.02
2022-12-13T02:46:38.934Z,141.92
2022-12-13T02:47:44.606Z,136.65
2022-12-13T02:48:58.077Z,145.56
2022-12-13T02:50:10.013Z,144.02
2022-12-13T02:51:20.733Z,145.81
2022-12-13T02:52:31.508Z,140.28
2022-12-13T02:53:41.495Z,140.84
2022-12-13T02:54:45.052Z,140.21
2022-12-13T02:55:51.683Z,139.53
2022-12-13T02:56:56.886Z,141.49
2022-12-13T02:58:02.820Z,137.51
2022-12-13T02:59:17.871Z,134.66
2022-12-13T03:00:37.907Z,134.37
2022-12-13T03:02:11.982Z,132.78
2022-12-13T03:03:38.796Z,141.48
2022-12-13T03:05:17.633Z,143.44
2022-12-13T03:06:47.676Z,139.00
2022-12-13T03:08:13.402Z,139.33
2022-12-13T03:09:43.170Z,137.12
2022-12-13T03:11:03.940Z,132.85
2022-12-13T03:12:41.692Z,130.80
2022-12-13T03:13:58.504Z,132.54
2022-12-13T03:15:18.707Z,127.25
2022-12-13T03:16:36.687Z,128.09
2022-12-13T03:17:55.089Z,126.85
2022-12-13T03:19:03.155Z,127.89
2022-12-13T03:20:23.312Z,128.00
2022-12-13T03:21:30.155Z,128.73
2022-12-13T03:22:35.224Z,124.32
2022-12-13T03:23:42.037Z,123.90
2022-12-13T03:24:45.614Z,128.23
2022-12-13T03:25:58.512Z,123.41
2022-12-13T03:27:02.153Z,122.25
2022-12-13T03:28:08.703Z,120.67
2022-12-13T03:29:12.045Z,116.11
2022-12-13T03:30:18.007Z,122.02
2022-12-13T03:31:25.770Z,121.42
2022-12-13T03:32:29.232Z,117.12
2022-12-13T03:33:38.982Z,115.49
2022-12-13T03:34:44.221Z,117.39
2022-12-13T03:35:53.074Z,114.39
2022-12-13T03:37:00.024Z,121.30
2022-12-13T03:38:05.845Z,115.36
2022-12-13T03:39:11.956Z,116.87
2022-12-13T03:40:15.581Z,126.77
2022-12-13T03:41:31.600Z,132.60
2022-12-13T03:42:35.975Z,120.43
2022-12-13T03:43:42.928Z,115.14
2022-12-13T03:44:46.165Z,117.13
2022-12-13T03:45:52.150Z,117.60
2022-12-13T03:46:57.987Z,114.95
2022-12-13T03:48:05.364Z,113.02
2022-12-13T03:49:17.421Z,116.49
2022-12-13T03:50:27.097Z,110.55
2022-12-13T03:51:33.331Z,108.67
2022-12-13T03:52:36.744Z,104.69
2022-12-13T03:53:43.565Z,102.62
2022-12-13T03:54:47.560Z,106.14
2022-12-13T03:55:53.850Z,112.59
2022-12-13T03:56:58.239Z,107.66
2022-12-13T03:58:07.865Z,108.42
2022-12-13T03:59:12.350Z,110.19
2022-12-13T04:00:19.587Z,109.56
2022-12-13T04:01:25.513Z,106.42
2022-12-13T04:02:31.198Z,113.89
2022-12-13T04:03:37.893Z,119.99
2022-12-13T04:04:44.675Z,125.71
2022-12-13T04:05:50.726Z,122.38
2022-12-13T04:06:54.092Z,113.84
2022-12-13T04:08:02.363Z,113.09
2022-12-13T04:09:05.921Z,110.46
2022-12-13T04:10:26.459Z,111.00
2022-12-13T04:11:45.100Z,113.22
2022-12-13T04:13:03.366Z,128.03
2022-12-13T04:14:06.695Z,125.81
2022-12-13T04:15:14.257Z,114.62
2022-12-13T04:16:18.285Z,120.60
2022-12-13T04:17:24.308Z,115.80
2022-12-13T04:18:27.660Z,120.51
2022-12-13T04:19:33.994Z,125.29
2022-12-13T04:20:40.722Z,126.50
2022-12-13T04:21:46.653Z,125.58
2022-12-13T04:22:50.103Z,128.93
2022-12-13T04:23:56.023Z,130.80
2022-12-13T04:25:05.523Z,130.74
2022-12-13T04:26:14.598Z,133.85
2022-12-13T04:27:17.932Z,123.26
2022-12-13T04:28:23.943Z,125.06
2022-12-13T04:29:34.451Z,113.72
2022-12-13T04:30:41.350Z,106.63
2022-12-13T04:31:45.545Z,108.17
2022-12-13T04:32:52.005Z,115.38
2022-12-13T04:33:55.251Z,118.15
2022-12-13T04:35:01.751Z,118.45
2022-12-13T04:36:11.589Z,113.90
2022-12-13T04:37:15.932Z,112.25
2022-12-13T04:38:23.179Z,114.17
2022-12-13T04:39:34.445Z,110.97
2022-12-13T04:40:38.093Z,109.94
2022-12-13T04:41:44.254Z,112.31
2022-12-13T04:42:48.486Z,102.60
2022-12-13T04:44:00.484Z,111.11
2022-12-13T04:45:04.384Z,112.86
2022-12-13T04:46:10.429Z,119.41
2022-12-13T04:47:13.664Z,119.62
2022-12-13T04:48:30.989Z,115.18
2022-12-13T04:49:35.392Z,113.16
2022-12-13T04:50:41.234Z,109.27
2022-12-13T04:51:47.586Z,111.34
2022-12-13T04:52:53.991Z,112.28
2022-12-13T04:54:23.526Z,114.91
2022-12-13T04:55:24.175Z,106.93
2022-12-13T04:56:27.592Z,105.64
2022-12-13T04:57:33.668Z,111.38
2022-12-13T04:58:37.137Z,114.86
2022-12-13T04:59:47.211Z,104.34
2022-12-13T05:00:53.199Z,96.57
2022-12-13T05:01:56.612Z,96.33
2022-12-13T05:03:02.559Z,99.30
2022-12-13T05:04:08.818Z,101.65
2022-12-13T05:05:13.380Z,102.41
2022-12-13T05:06:26.824Z,101.96
2022-12-13T05:07:36.443Z,96.29
2022-12-13T05:08:49.088Z,90.03
2022-12-13T05:09:52.452Z,91.95
2022-12-13T05:10:59.232Z,95.44
2022-12-13T05:12:02.531Z,101.46
2022-12-13T05:13:10.295Z,126.91
2022-12-13T05:14:13.618Z,114.23
2022-12-13T05:15:19.881Z,96.70
2022-12-13T05:16:24.683Z,97.83
2022-12-13T05:17:30.815Z,99.88
2022-12-13T05:18:36.658Z,92.47
2022-12-13T05:19:42.615Z,87.73
2022-12-13T05:20:48.584Z,88.93
2022-12-13T05:21:52.773Z,94.10
2022-12-13T05:23:02.220Z,96.57
2022-12-13T05:24:10.604Z,89.98
2022-12-13T05:25:16.797Z,94.47
2022-12-13T05:26:23.129Z,97.22
2022-12-13T05:27:29.998Z,100.09
2022-12-13T05:28:34.816Z,91.73
2022-12-13T05:29:41.863Z,91.62
2022-12-13T05:30:45.848Z,89.73
2022-12-13T05:31:51.856Z,93.74
2022-12-13T05:32:59.059Z,98.01
2022-12-13T05:34:02.507Z,100.74
2022-12-13T05:35:10.308Z,101.57
2022-12-13T05:36:16.187Z,105.23
2022-12-13T05:37:22.139Z,110.60
2022-12-13T05:38:30.061Z,115.07
2022-12-13T05:39:35.934Z,118.64
2022-12-13T05:40:39.259Z,115.93
2022-12-13T05:41:45.799Z,118.24
2022-12-13T05:42:51.848Z,117.15
2022-12-13T05:44:05.695Z,126.04
2022-12-13T05:45:13.735Z,119.78
2022-12-13T05:46:17.453Z,122.40
2022-12-13T05:47:23.373Z,120.32
2022-12-13T05:48:26.711Z,123.71
2022-12-13T05:49:33.651Z,136.01
2022-12-13T05:50:38.511Z,134.36
2022-12-13T05:51:44.788Z,136.98
2022-12-13T05:52:48.097Z,142.55
2022-12-13T05:53:56.632Z,143.36
2022-12-13T05:55:03.401Z,144.11
2022-12-13T05:56:10.200Z,142.16
2022-12-13T05:57:16.676Z,151.89
2022-12-13T05:58:23.266Z,158.38
2022-12-13T05:59:29.561Z,157.50
2022-12-13T06:00:33.734Z,163.39
2022-12-13T06:01:44.084Z,163.09
2022-12-13T06:02:47.577Z,181.09
2022-12-13T06:03:55.843Z,175.23
2022-12-13T06:05:03.187Z,170.08
2022-12-13T06:06:14.060Z,169.00
2022-12-13T06:07:17.585Z,152.31
2022-12-13T06:08:24.381Z,170.17
2022-12-13T06:09:39.990Z,173.02
2022-12-13T06:10:46.253Z,171.93
2022-12-13T06:12:01.104Z,176.35
2022-12-13T06:13:32.203Z,191.58
2022-12-13T06:14:33.957Z,188.73
2022-12-13T06:15:44.576Z,189.50
2022-12-13T06:16:50.813Z,175.63
2022-12-13T06:17:55.053Z,198.10
2022-12-13T06:19:04.331Z,200.25
2022-12-13T06:20:23.482Z,230.29
2022-12-13T06:21:40.759Z,232.73
2022-12-13T06:22:49.695Z,224.98
2022-12-13T06:23:56.405Z,231.19
2022-12-13T06:25:02.916Z,226.73
2022-12-13T06:26:11.213Z,252.63
2022-12-13T06:27:17.020Z,250.52
2022-12-13T06:28:23.467Z,252.19
2022-12-13T06:29:30.335Z,210.61
2022-12-13T06:30:33.752Z,232.96
2022-12-13T06:31:39.946Z,242.21
2022-12-13T06:32:45.986Z,217.15
2022-12-13T06:33:52.155Z,200.49
2022-12-13T06:34:58.914Z,209.66
2022-12-13T06:36:08.047Z,216.55
2022-12-13T06:37:17.303Z,199.63
2022-12-13T06:38:31.126Z,201.45
2022-12-13T06:39:38.544Z,206.07
2022-12-13T06:40:47.934Z,209.46
2022-12-13T06:41:54.736Z,214.71
2022-12-13T06:43:01.083Z,215.31
2022-12-13T06:44:05.419Z,208.15
2022-12-13T06:45:12.336Z,209.84
2022-12-13T06:46:19.270Z,225.26
2022-12-13T06:47:31.520Z,238.85
2022-12-13T06:48:40.752Z,203.78
2022-12-13T06:49:44.706Z,187.68
2022-12-13T06:50:51.463Z,192.05
2022-12-13T06:51:58.180Z,197.75
2022-12-13T06:53:04.250Z,205.24
2022-12-13T06:54:10.359Z,216.88
2022-12-13T06:55:24.107Z,227.57
2022-12-13T06:56:33.909Z,191.46
2022-12-13T06:57:37.979Z,209.11
2022-12-13T06:58:47.027Z,204.00
2022-12-13T06:59:53.431Z,198.70
2022-12-13T07:01:06.731Z,195.30
2022-12-13T07:02:25.529Z,197.40
2022-12-13T07:03:32.961Z,224.95
2022-12-13T07:04:38.840Z,208.10
2022-12-13T07:05:45.392Z,208.86
2022-12-13T07:06:51.462Z,185.00
2022-12-13T07:07:57.893Z,182.49
2022-12-13T07:09:04.695Z,175.08
2022-12-13T07:10:22.787Z,167.89
2022-12-13T07:11:34.977Z,153.20
2022-12-13T07:12:40.962Z,154.02
2022-12-13T07:13:48.222Z,163.59
2022-12-13T07:14:56.267Z,169.73
2022-12-13T07:16:02.274Z,178.12
2022-12-13T07:17:05.919Z,163.02
2022-12-13T07:18:12.120Z,163.04
2022-12-13T07:19:23.968Z,157.69
2022-12-13T07:20:31.273Z,148.15
2022-12-13T07:21:39.318Z,141.01
2022-12-13T07:22:49.188Z,149.03
2022-12-13T07:23:57.573Z,151.83
2022-12-13T07:25:00.924Z,147.03
2022-12-13T07:26:10.256Z,154.17
2022-12-13T07:27:16.211Z,151.47
2022-12-13T07:28:22.640Z,149.18
2022-12-13T07:29:26.040Z,156.42
2022-12-13T07:30:32.237Z,152.74
2022-12-13T07:31:39.770Z,154.74
2022-12-13T07:32:45.887Z,146.34
2022-12-13T07:33:51.865Z,144.99
2022-12-13T07:34:55.219Z,143.74
2022-12-13T07:36:04.923Z,144.65
2022-12-13T07:37:30.447Z,139.04
2022-12-13T07:38:37.291Z,141.68
2022-12-13T07:39:40.633Z,148.29
2022-12-13T07:40:46.511Z,155.23
2022-12-13T07:41:52.557Z,153.25
2022-12-13T07:42:59.386Z,150.89
2022-12-13T07:44:05.332Z,150.64
2022-12-13T07:45:12.713Z,158.98
2022-12-13T07:46:23.475Z,207.99
2022-12-13T07:47:39.079Z,219.38
2022-12-13T07:48:47.129Z,219.90
2022-12-13T07:49:53.100Z,225.72
2022-12-13T07:51:07.143Z,242.87
2022-12-13T07:52:14.587Z,266.22
2022-12-13T07:53:21.054Z,241.54
2022-12-13T07:54:28.162Z,240.48
2022-12-13T07:55:34.282Z,293.85
2022-12-13T07:56:41.263Z,290.44
2022-12-13T07:57:47.123Z,312.49
2022-12-13T07:58:55.696Z,327.74
2022-12-13T08:00:02.635Z,326.64
2022-12-13T08:01:18.776Z,294.26
2022-12-13T08:02:24.795Z,268.88
2022-12-13T08:03:31.224Z,252.94
2022-12-13T08:04:38.100Z,252.20
2022-12-13T08:05:45.655Z,275.55
2022-12-13T08:06:51.966Z,317.63
2022-12-13T08:07:58.022Z,349.70
2022-12-13T08:09:04.049Z,353.62
2022-12-13T08:10:10.799Z,374.19
2022-12-13T08:11:19.224Z,346.67
2022-12-13T08:12:25.353Z,339.73
2022-12-13T08:13:31.366Z,313.24
2022-12-13T08:14:39.874Z,358.92
2022-12-13T08:15:45.945Z,346.09
2022-12-13T08:16:52.855Z,360.68
2022-12-13T08:18:01.113Z,322.05
2022-12-13T08:19:10.365Z,401.81
2022-12-13T08:20:13.729Z,421.18
2022-12-13T08:21:53.263Z,391.91
2022-12-13T08:23:02.115Z,338.51
2022-12-13T08:24:15.308Z,407.06
2022-12-13T08:25:21.821Z,492.25
2022-12-13T08:26:25.270Z,578.88
2022-12-13T08:27:31.464Z,557.80
2022-12-13T08:28:38.892Z,679.84
2022-12-13T08:29:47.664Z,548.79
2022-12-13T08:30:55.556Z,353.97
2022-12-13T08:32:01.806Z,348.64
2022-12-13T08:33:08.056Z,384.32
2022-12-13T08:34:14.804Z,421.64
2022-12-13T08:35:21.077Z,380.82
2022-12-13T08:36:27.570Z,396.28
2022-12-13T08:37:30.865Z,400.48
2022-12-13T08:38:36.844Z,446.02
2022-12-13T08:39:44.770Z,426.74
2022-12-13T08:40:51.664Z,353.26
2022-12-13T08:41:57.722Z,336.55
2022-12-13T08:43:03.833Z,351.75
2022-12-13T08:44:10.006Z,324.36
2022-12-13T08:45:19.561Z,327.48
2022-12-13T08:46:25.688Z,338.99
2022-12-13T08:47:32.733Z,330.24
2022-12-13T08:48:44.895Z,318.97
2022-12-13T08:49:48.558Z,368.44
2022-12-13T08:50:55.456Z,386.35
2022-12-13T08:52:02.923Z,368.03
2022-12-13T08:53:09.255Z,370.92
2022-12-13T08:54:31.111Z,306.98
2022-12-13T08:55:37.845Z,338.42
2022-12-13T08:56:45.064Z,367.59
2022-12-13T08:57:51.147Z,407.89
2022-12-13T08:58:58.224Z,416.42
2022-12-13T09:00:04.180Z,612.56
2022-12-13T09:01:13.746Z,688.23
2022-12-13T09:02:20.772Z,666.77
2022-12-13T09:03:26.859Z,655.30
2022-12-13T09:04:32.993Z,662.90
2022-12-13T09:05:38.953Z,490.75
2022-12-13T09:06:46.234Z,394.10
2022-12-13T09:07:58.441Z,392.60
2022-12-13T09:09:08.187Z,389.39
2022-12-13T09:10:27.053Z,356.87
2022-12-13T09:11:39.883Z,417.43
2022-12-13T09:12:46.823Z,417.50
2022-12-13T09:13:53.667Z,384.34
2022-12-13T09:15:23.017Z,375.34
2022-12-13T09:16:35.652Z,380.94
2022-12-13T09:17:42.242Z,368.49
2022-12-13T09:18:55.102Z,352.41
2022-12-13T09:20:02.892Z,371.75
2022-12-13T09:21:22.476Z,355.26
2022-12-13T09:22:38.156Z,336.74
2022-12-13T09:23:53.141Z,350.19
2022-12-13T09:25:15.069Z,366.60
2022-12-13T09:26:38.382Z,356.45
2022-12-13T09:27:44.617Z,367.56
2022-12-13T09:28:51.382Z,370.28
2022-12-13T09:29:57.679Z,353.21
2022-12-13T09:31:04.707Z,336.69
2022-12-13T09:32:13.432Z,347.78
2022-12-13T09:33:30.191Z,348.21
2022-12-13T09:34:37.052Z,343.47
2022-12-13T09:35:44.975Z,347.12
2022-12-13T09:36:51.890Z,358.19
2022-12-13T09:37:59.186Z,346.27
2022-12-13T09:39:05.343Z,332.98
2022-12-13T09:40:25.374Z,327.23
2022-12-13T09:41:41.370Z,323.37
2022-12-13T09:43:12.374Z,306.90
2022-12-13T09:44:32.294Z,301.44
2022-12-13T09:45:50.909Z,307.25
2022-12-13T09:47:02.668Z,293.05
2022-12-13T09:48:14.088Z,282.53
2022-12-13T09:49:37.470Z,328.07
2022-12-13T09:50:51.564Z,292.69
2022-12-13T09:52:21.325Z,255.44
2022-12-13T09:53:33.910Z,263.40
2022-12-13T09:54:48.255Z,300.12
2022-12-13T09:56:09.936Z,289.80
2022-12-13T09:57:32.061Z,307.24
2022-12-13T09:58:40.634Z,319.82
2022-12-13T09:59:47.043Z,373.78
2022-12-13T10:00:58.081Z,471.71
2022-12-13T10:02:20.738Z,566.98
2022-12-13T10:03:31.009Z,711.41
2022-12-13T10:04:37.052Z,559.54
2022-12-13T10:05:47.332Z,451.99
2022-12-13T10:06:57.018Z,490.17
2022-12-13T10:08:12.306Z,415.87
2022-12-13T10:09:19.050Z,309.15
2022-12-13T10:10:26.106Z,298.09
2022-12-13T10:11:33.560Z,320.76
2022-12-13T10:12:40.573Z,294.76
2022-12-13T10:13:54.915Z,293.98
2022-12-13T10:15:06.374Z,303.39
2022-12-13T10:16:36.312Z,287.89
2022-12-13T10:17:51.538Z,286.05
2022-12-13T10:19:28.498Z,271.88
2022-12-13T10:20:38.227Z,302.99
2022-12-13T10:21:48.856Z,303.78
2022-12-13T10:23:31.415Z,265.96
2022-12-13T10:24:32.942Z,292.27
2022-12-13T10:25:54.981Z,305.34
2022-12-13T10:27:21.651Z,397.83
2022-12-13T10:28:34.007Z,384.88
2022-12-13T10:30:05.950Z,362.40
2022-12-13T10:31:18.391Z,274.53
2022-12-13T10:32:22.778Z,360.96
2022-12-13T10:33:34.968Z,371.69
2022-12-13T10:34:44.698Z,395.81
2022-12-13T10:36:11.263Z,363.94
2022-12-13T10:37:33.441Z,343.08
2022-12-13T10:38:43.944Z,357.52
2022-12-13T10:39:48.102Z,264.69
2022-12-13T10:40:54.258Z,277.30
2022-12-13T10:42:09.249Z,243.87
2022-12-13T10:43:18.918Z,244.63
2022-12-13T10:44:27.403Z,253.36
2022-12-13T10:45:31.679Z,312.20
2022-12-13T10:46:40.720Z,281.09
2022-12-13T10:47:48.763Z,319.05
2022-12-13T10:48:56.142Z,317.62
2022-12-13T10:50:06.737Z,320.22
2022-12-13T10:51:18.021Z,212.65
2022-12-13T10:52:32.061Z,203.13
2022-12-13T10:53:47.861Z,240.87
2022-12-13T10:54:52.854Z,222.85
2022-12-13T10:56:09.400Z,282.15
2022-12-13T10:57:13.678Z,336.96
2022-12-13T10:58:23.642Z,262.44
2022-12-13T10:59:36.890Z,179.36
2022-12-13T11:00:47.809Z,171.34
2022-12-13T11:01:51.893Z,197.34
2022-12-13T11:02:58.895Z,202.76
2022-12-13T11:04:08.427Z,209.44
2022-12-13T11:05:34.149Z,223.84
2022-12-13T11:06:47.256Z,197.79
2022-12-13T11:07:55.477Z,193.49
2022-12-13T11:09:23.182Z,187.64
2022-12-13T11:10:32.591Z,178.22
2022-12-13T11:11:38.632Z,152.99
2022-12-13T11:12:46.054Z,192.55
2022-12-13T11:14:01.791Z,226.02
2022-12-13T11:15:23.108Z,227.68
2022-12-13T11:16:35.849Z,227.74
2022-12-13T11:17:54.665Z,244.68
2022-12-13T11:19:05.545Z,271.67
2022-12-13T11:20:24.490Z,270.16
2022-12-13T11:21:39.433Z,248.69
2022-12-13T11:22:46.329Z,217.87
2022-12-13T11:23:52.403Z,271.06
2022-12-13T11:25:11.164Z,327.02
2022-12-13T11:26:25.916Z,294.65
2022-12-13T11:28:01.242Z,294.16
2022-12-13T11:29:44.937Z,263.82
2022-12-13T11:31:12.439Z,283.13
2022-12-13T11:32:44.453Z,255.41
2022-12-13T11:34:08.435Z,249.91
2022-12-13T11:35:28.605Z,310.40
2022-12-13T11:36:52.288Z,322.30
2022-12-13T11:38:19.745Z,322.31
2022-12-13T11:39:36.242Z,317.56
2022-12-13T11:40:52.413Z,378.47
2022-12-13T11:42:14.006Z,348.82
2022-12-13T11:43:40.569Z,273.78
2022-12-13T11:45:03.116Z,290.48
2022-12-13T11:46:22.940Z,348.85
2022-12-13T11:47:40.753Z,307.16
2022-12-13T11:48:59.536Z,350.81
2022-12-13T11:50:33.087Z,330.51
2022-12-13T11:51:51.972Z,376.25
2022-12-13T11:53:20.111Z,354.73
2022-12-13T11:54:41.263Z,274.83
2022-12-13T11:55:58.361Z,306.38
2022-12-13T11:57:21.712Z,256.06
2022-12-13T12:00:33.858Z,291.50
2022-12-13T12:01:53.069Z,268.67
2022-12-13T12:03:16.321Z,259.13
2022-12-13T12:04:37.622Z,263.94
2022-12-13T12:05:55.938Z,331.52
2022-12-13T12:07:32.539Z,291.95
2022-12-13T12:08:49.616Z,259.58
2022-12-13T12:10:12.678Z,269.21
2022-12-13T12:11:34.312Z,266.48
2022-12-13T12:12:45.972Z,282.36
2022-12-13T12:14:02.115Z,288.87
2022-12-13T12:15:18.477Z,280.83
2022-12-13T12:16:46.487Z,289.11
2022-12-13T12:17:52.771Z,281.83
2022-12-13T12:19:01.414Z,303.90
2022-12-13T12:20:23.272Z,266.19
2022-12-13T12:22:12.691Z,270.58
2022-12-13T12:23:31.586Z,252.79
2022-12-13T12:25:03.545Z,283.53
2022-12-13T12:26:17.812Z,241.01
2022-12-13T12:27:43.713Z,278.97
2022-12-13T12:29:24.052Z,262.41
2022-12-13T12:30:51.841Z,251.51
2022-12-13T12:32:13.965Z,239.80
2022-12-13T12:33:37.966Z,235.86
2022-12-13T12:35:04.624Z,219.49
2022-12-13T12:36:43.852Z,231.34
2022-12-13T12:38:12.967Z,257.74
2022-12-13T12:39:54.288Z,207.62
2022-12-13T12:41:27.532Z,250.24
2022-12-13T12:43:15.310Z,261.86
2022-12-13T12:44:47.872Z,231.90
2022-12-13T12:46:20.381Z,215.81
2022-12-13T12:48:41.310Z,195.81
2022-12-13T12:49:55.167Z,199.03
2022-12-13T12:51:13.962Z,203.86
2022-12-13T12:52:34.997Z,192.35
2022-12-13T12:53:54.149Z,164.31
2022-12-13T12:55:21.838Z,176.23
2022-12-13T12:56:48.254Z,189.43
2022-12-13T12:58:18.637Z,156.38
2022-12-13T12:59:42.438Z,156.53
2022-12-13T13:01:11.271Z,146.66
2022-12-13T13:02:29.591Z,141.32
2022-12-13T13:03:44.658Z,137.50
2022-12-13T13:05:00.987Z,140.14
2022-12-13T13:06:18.984Z,164.75
2022-12-13T13:07:39.996Z,224.76
2022-12-13T13:08:55.616Z,249.53
2022-12-13T13:10:25.923Z,208.72
2022-12-13T13:11:43.027Z,238.71
2022-12-13T13:12:50.512Z,252.48
2022-12-13T13:14:28.833Z,227.15
2022-12-13T13:15:59.535Z,249.47
2022-12-13T13:17:50.529Z,261.46
2022-12-13T13:18:56.163Z,261.87
2022-12-13T13:20:23.587Z,213.13
2022-12-13T13:21:53.833Z,213.14
2022-12-13T13:23:39.868Z,228.99
2022-12-13T13:24:31.658Z,273.10
2022-12-13T13:26:07.720Z,244.83
2022-12-13T13:27:32.751Z,237.08
2022-12-13T13:28:40.652Z,217.95
2022-12-13T13:29:47.817Z,231.34
2022-12-13T13:31:10.450Z,251.99
2022-12-13T13:32:34.702Z,222.76
2022-12-13T13:33:53.520Z,277.19
2022-12-13T13:35:53.897Z,254.93
2022-12-13T13:37:02.438Z,263.16
2022-12-13T13:39:01.644Z,260.26
2022-12-13T13:40:37.399Z,253.18
2022-12-13T13:42:20.266Z,315.61
2022-12-13T13:43:34.652Z,421.97
2022-12-13T13:45:27.317Z,341.23
2022-12-13T13:46:31.066Z,420.61
2022-12-13T13:47:46.648Z,396.76
2022-12-13T13:49:12.155Z,413.65
2022-12-13T13:51:28.060Z,342.53
2022-12-13T13:52:59.464Z,364.76
2022-12-13T13:55:20.501Z,385.73
2022-12-13T13:56:50.192Z,378.92
2022-12-13T13:58:40.593Z,404.07
2022-12-13T14:00:23.356Z,341.20
2022-12-13T14:02:13.491Z,365.89
2022-12-13T14:04:24.672Z,354.38
2022-12-13T14:06:26.547Z,376.55
2022-12-13T14:08:20.573Z,372.89
2022-12-13T14:10:17.887Z,363.41
2022-12-13T14:12:25.732Z,390.17
2022-12-13T14:14:38.683Z,385.81
2022-12-13T14:16:35.913Z,340.34
2022-12-13T14:18:32.897Z,384.28
2022-12-13T14:20:31.919Z,383.35
2022-12-13T14:22:05.723Z,379.70
2022-12-13T14:23:32.238Z,382.29
2022-12-13T14:24:56.981Z,391.18
2022-12-13T14:26:43.894Z,419.68
2022-12-13T14:28:04.433Z,447.00
2022-12-13T14:29:24.174Z,435.12
2022-12-13T14:30:31.568Z,454.40
2022-12-13T14:31:44.744Z,478.96
2022-12-13T14:32:53.479Z,538.85
2022-12-13T14:34:03.287Z,519.41
2022-12-13T14:35:25.587Z,531.61
2022-12-13T14:36:36.711Z,563.35
2022-12-13T14:37:42.873Z,575.65
2022-12-13T14:38:49.002Z,621.91
2022-12-13T14:39:55.325Z,585.02
2022-12-13T14:41:06.304Z,616.43
2022-12-13T14:42:29.675Z,663.88
2022-12-13T14:43:38.822Z,632.45
2022-12-13T14:44:47.522Z,668.15
2022-12-13T14:45:59.819Z,683.47
2022-12-13T14:47:11.477Z,692.16
2022-12-13T14:48:28.860Z,645.88
2022-12-13T14:49:41.923Z,708.92
2022-12-13T14:50:56.725Z,769.28
2022-12-13T14:52:11.251Z,741.50
2022-12-13T14:53:30.717Z,767.56
2022-12-13T14:54:50.341Z,819.24
2022-12-13T14:56:27.534Z,777.04
2022-12-13T14:57:38.283Z,874.29
2022-12-13T14:58:58.009Z,932.06
2022-12-13T15:00:27.614Z,839.90
2022-12-13T15:01:37.274Z,784.30
2022-12-13T15:02:55.834Z,712.44
2022-12-13T15:04:23.102Z,671.93
2022-12-13T15:05:33.361Z,689.40
2022-12-13T15:06:36.916Z,656.53
2022-12-13T15:07:46.268Z,655.02
2022-12-13T15:08:52.649Z,634.15
2022-12-13T15:10:04.688Z,675.21
2022-12-13T15:11:13.459Z,694.28
2022-12-13T15:12:25.148Z,638.09
2022-12-13T15:13:41.095Z,629.34
2022-12-13T15:14:56.595Z,663.60
2022-12-13T15:16:12.684Z,682.46
2022-12-13T15:17:33.807Z,780.48
2022-12-13T15:18:50.510Z,811.57
2022-12-13T15:20:01.005Z,799.46